sensor_id;sensor_type;location;lat;lon;timestamp;P1;durP1;ratioP1;P2;durP2;ratioP2
53056;SDS011;38940;50.096;4.012;2022-09-11T00:01:37;51.17;;;47.50;;
53056;SDS011;38940;50.096;4.012;2022-09-11T00:04:04;60.65;;;56.25;;
53056;SDS011;38940;50.096;4.012;2022-09-11T00:06:30;64.93;;;60.42;;
53056;SDS011;38940;50.096;4.012;2022-09-11T00:09:01;60.30;;;55.85;;
53056;SDS011;38940;50.096;4.012;2022-09-11T00:11:28;59.20;;;54.80;;
53056;SDS011;38940;50.096;4.012;2022-09-11T00:13:54;62.55;;;58.05;;
53056;SDS011;38940;50.096;4.012;2022-09-11T00:16:29;60.70;;;56.28;;
53056;SDS011;38940;50.096;4.012;2022-09-11T00:18:57;55.78;;;51.90;;
53056;SDS011;38940;50.096;4.012;2022-09-11T00:21:24;55.47;;;51.38;;
53056;SDS011;38940;50.096;4.012;2022-09-11T00:23:50;59.75;;;55.28;;
53056;SDS011;38940;50.096;4.012;2022-09-11T00:26:17;61.60;;;57.10;;
53056;SDS011;38940;50.096;4.012;2022-09-11T00:28:43;56.13;;;52.03;;
53056;SDS011;38940;50.096;4.012;2022-09-11T00:31:15;60.65;;;56.35;;
53056;SDS011;38940;50.096;4.012;2022-09-11T00:33:41;60.22;;;56.03;;
53056;SDS011;38940;50.096;4.012;2022-09-11T00:36:19;62.83;;;58.13;;
53056;SDS011;38940;50.096;4.012;2022-09-11T00:38:45;61.75;;;57.00;;
53056;SDS011;38940;50.096;4.012;2022-09-11T00:41:13;59.40;;;55.35;;
53056;SDS011;38940;50.096;4.012;2022-09-11T00:51:40;51.20;;;47.35;;
53056;SDS011;38940;50.096;4.012;2022-09-11T00:54:08;54.55;;;50.35;;
53056;SDS011;38940;50.096;4.012;2022-09-11T00:56:36;55.72;;;51.30;;
53056;SDS011;38940;50.096;4.012;2022-09-11T00:59:05;50.00;;;46.17;;
53056;SDS011;38940;50.096;4.012;2022-09-11T01:01:32;56.75;;;52.25;;
53056;SDS011;38940;50.096;4.012;2022-09-11T01:04:00;58.72;;;54.47;;
53056;SDS011;38940;50.096;4.012;2022-09-11T01:06:27;50.80;;;46.83;;
53056;SDS011;38940;50.096;4.012;2022-09-11T01:08:53;55.05;;;50.50;;
53056;SDS011;38940;50.096;4.012;2022-09-11T01:14:08;48.28;;;44.67;;
53056;SDS011;38940;50.096;4.012;2022-09-11T01:17:11;61.10;;;56.55;;
53056;SDS011;38940;50.096;4.012;2022-09-11T01:22:38;60.22;;;55.55;;
53056;SDS011;38940;50.096;4.012;2022-09-11T01:27:55;68.82;;;63.42;;
53056;SDS011;38940;50.096;4.012;2022-09-11T01:30:22;66.93;;;62.05;;
53056;SDS011;38940;50.096;4.012;2022-09-11T01:38:00;61.38;;;56.25;;
53056;SDS011;38940;50.096;4.012;2022-09-11T01:40:38;61.97;;;57.67;;
53056;SDS011;38940;50.096;4.012;2022-09-11T01:43:07;60.85;;;56.65;;
53056;SDS011;38940;50.096;4.012;2022-09-11T01:45:37;55.95;;;51.25;;
53056;SDS011;38940;50.096;4.012;2022-09-11T01:48:04;52.97;;;48.05;;
53056;SDS011;38940;50.096;4.012;2022-09-11T01:50:32;57.65;;;52.78;;
53056;SDS011;38940;50.096;4.012;2022-09-11T01:53:01;56.80;;;52.03;;
53056;SDS011;38940;50.096;4.012;2022-09-11T01:55:30;54.10;;;49.78;;
53056;SDS011;38940;50.096;4.012;2022-09-11T01:57:59;57.92;;;53.63;;
53056;SDS011;38940;50.096;4.012;2022-09-11T02:00:27;53.25;;;49.20;;
53056;SDS011;38940;50.096;4.012;2022-09-11T02:02:55;64.13;;;59.50;;
53056;SDS011;38940;50.096;4.012;2022-09-11T02:05:28;60.22;;;55.72;;
53056;SDS011;38940;50.096;4.012;2022-09-11T02:08:09;68.95;;;63.20;;
53056;SDS011;38940;50.096;4.012;2022-09-11T02:10:41;73.18;;;67.63;;
53056;SDS011;38940;50.096;4.012;2022-09-11T02:13:18;64.65;;;59.45;;
53056;SDS011;38940;50.096;4.012;2022-09-11T02:15:48;61.72;;;56.95;;
53056;SDS011;38940;50.096;4.012;2022-09-11T02:18:21;72.47;;;67.10;;
53056;SDS011;38940;50.096;4.012;2022-09-11T02:20:49;75.10;;;69.63;;
53056;SDS011;38940;50.096;4.012;2022-09-11T02:23:16;67.70;;;62.60;;
53056;SDS011;38940;50.096;4.012;2022-09-11T02:25:43;65.38;;;60.08;;
53056;SDS011;38940;50.096;4.012;2022-09-11T02:28:10;61.33;;;56.65;;
53056;SDS011;38940;50.096;4.012;2022-09-11T02:30:37;64.93;;;60.17;;
53056;SDS011;38940;50.096;4.012;2022-09-11T02:33:03;73.25;;;67.65;;
53056;SDS011;38940;50.096;4.012;2022-09-11T02:35:31;59.92;;;55.35;;
53056;SDS011;38940;50.096;4.012;2022-09-11T02:38:05;54.28;;;49.85;;
53056;SDS011;38940;50.096;4.012;2022-09-11T02:40:45;64.45;;;59.60;;
53056;SDS011;38940;50.096;4.012;2022-09-11T02:50:49;73.70;;;68.15;;
53056;SDS011;38940;50.096;4.012;2022-09-11T02:55:56;68.60;;;63.65;;
53056;SDS011;38940;50.096;4.012;2022-09-11T03:00:57;68.30;;;63.30;;
53056;SDS011;38940;50.096;4.012;2022-09-11T03:03:23;79.70;;;74.15;;
53056;SDS011;38940;50.096;4.012;2022-09-11T03:05:49;80.30;;;73.97;;
53056;SDS011;38940;50.096;4.012;2022-09-11T03:08:15;70.70;;;65.38;;
53056;SDS011;38940;50.096;4.012;2022-09-11T03:10:41;76.10;;;70.57;;
53056;SDS011;38940;50.096;4.012;2022-09-11T03:13:14;71.30;;;65.43;;
53056;SDS011;38940;50.096;4.012;2022-09-11T03:15:41;77.93;;;72.20;;
53056;SDS011;38940;50.096;4.012;2022-09-11T03:18:10;67.32;;;62.63;;
53056;SDS011;38940;50.096;4.012;2022-09-11T03:20:39;64.97;;;59.95;;
53056;SDS011;38940;50.096;4.012;2022-09-11T03:23:08;67.70;;;61.90;;
53056;SDS011;38940;50.096;4.012;2022-09-11T03:25:34;58.38;;;54.08;;
53056;SDS011;38940;50.096;4.012;2022-09-11T03:28:00;61.63;;;56.47;;
53056;SDS011;38940;50.096;4.012;2022-09-11T03:30:28;64.53;;;59.28;;
53056;SDS011;38940;50.096;4.012;2022-09-11T03:32:54;64.82;;;59.95;;
53056;SDS011;38940;50.096;4.012;2022-09-11T03:35:21;60.53;;;54.50;;
53056;SDS011;38940;50.096;4.012;2022-09-11T03:37:49;59.10;;;54.65;;
53056;SDS011;38940;50.096;4.012;2022-09-11T03:40:15;63.75;;;58.80;;
53056;SDS011;38940;50.096;4.012;2022-09-11T03:42:41;64.72;;;59.15;;
53056;SDS011;38940;50.096;4.012;2022-09-11T03:45:07;59.53;;;54.95;;
53056;SDS011;38940;50.096;4.012;2022-09-11T03:47:33;67.55;;;62.47;;
53056;SDS011;38940;50.096;4.012;2022-09-11T03:50:01;57.95;;;52.90;;
53056;SDS011;38940;50.096;4.012;2022-09-11T03:52:27;60.03;;;55.38;;
53056;SDS011;38940;50.096;4.012;2022-09-11T03:54:54;63.40;;;58.63;;
53056;SDS011;38940;50.096;4.012;2022-09-11T03:57:21;62.95;;;58.05;;
53056;SDS011;38940;50.096;4.012;2022-09-11T03:59:47;60.70;;;56.22;;
53056;SDS011;38940;50.096;4.012;2022-09-11T04:02:13;68.95;;;63.75;;
53056;SDS011;38940;50.096;4.012;2022-09-11T04:04:39;69.00;;;63.83;;
53056;SDS011;38940;50.096;4.012;2022-09-11T04:07:05;67.55;;;62.00;;
53056;SDS011;38940;50.096;4.012;2022-09-11T04:09:31;65.18;;;60.03;;
53056;SDS011;38940;50.096;4.012;2022-09-11T04:11:57;66.95;;;62.08;;
53056;SDS011;38940;50.096;4.012;2022-09-11T04:14:23;64.45;;;59.70;;
53056;SDS011;38940;50.096;4.012;2022-09-11T04:16:49;68.35;;;63.33;;
53056;SDS011;38940;50.096;4.012;2022-09-11T04:19:15;74.22;;;68.38;;
53056;SDS011;38940;50.096;4.012;2022-09-11T04:21:42;69.75;;;64.60;;
53056;SDS011;38940;50.096;4.012;2022-09-11T04:24:08;67.40;;;62.03;;
53056;SDS011;38940;50.096;4.012;2022-09-11T04:26:34;66.00;;;61.17;;
53056;SDS011;38940;50.096;4.012;2022-09-11T04:29:00;64.25;;;59.45;;
53056;SDS011;38940;50.096;4.012;2022-09-11T04:31:26;67.55;;;62.35;;
53056;SDS011;38940;50.096;4.012;2022-09-11T04:33:53;66.65;;;61.63;;
53056;SDS011;38940;50.096;4.012;2022-09-11T04:36:19;71.13;;;65.72;;
53056;SDS011;38940;50.096;4.012;2022-09-11T04:38:46;71.47;;;66.03;;
53056;SDS011;38940;50.096;4.012;2022-09-11T04:41:14;73.03;;;66.72;;
53056;SDS011;38940;50.096;4.012;2022-09-11T04:43:40;59.10;;;54.53;;
53056;SDS011;38940;50.096;4.012;2022-09-11T04:46:08;61.30;;;56.38;;
53056;SDS011;38940;50.096;4.012;2022-09-11T04:48:34;65.18;;;59.80;;
53056;SDS011;38940;50.096;4.012;2022-09-11T04:51:04;69.95;;;64.63;;
53056;SDS011;38940;50.096;4.012;2022-09-11T04:53:31;69.95;;;64.65;;
53056;SDS011;38940;50.096;4.012;2022-09-11T04:56:01;71.75;;;66.15;;
53056;SDS011;38940;50.096;4.012;2022-09-11T04:58:27;76.07;;;70.40;;
53056;SDS011;38940;50.096;4.012;2022-09-11T05:00:53;79.18;;;72.32;;
53056;SDS011;38940;50.096;4.012;2022-09-11T05:03:19;87.38;;;79.43;;
53056;SDS011;38940;50.096;4.012;2022-09-11T05:05:45;90.82;;;82.68;;
53056;SDS011;38940;50.096;4.012;2022-09-11T05:08:11;83.32;;;75.45;;
53056;SDS011;38940;50.096;4.012;2022-09-11T05:10:37;77.90;;;70.80;;
53056;SDS011;38940;50.096;4.012;2022-09-11T05:13:03;80.45;;;73.93;;
53056;SDS011;38940;50.096;4.012;2022-09-11T05:15:29;84.38;;;77.65;;
53056;SDS011;38940;50.096;4.012;2022-09-11T05:17:56;82.00;;;70.55;;
53056;SDS011;38940;50.096;4.012;2022-09-11T05:20:22;78.63;;;69.80;;
53056;SDS011;38940;50.096;4.012;2022-09-11T05:22:49;80.45;;;73.70;;
53056;SDS011;38940;50.096;4.012;2022-09-11T05:25:15;77.47;;;69.55;;
53056;SDS011;38940;50.096;4.012;2022-09-11T05:27:42;83.43;;;75.00;;
53056;SDS011;38940;50.096;4.012;2022-09-11T05:30:09;76.43;;;70.35;;
53056;SDS011;38940;50.096;4.012;2022-09-11T05:32:35;82.32;;;66.45;;
53056;SDS011;38940;50.096;4.012;2022-09-11T05:35:01;73.57;;;66.93;;
53056;SDS011;38940;50.096;4.012;2022-09-11T05:37:27;79.28;;;71.43;;
53056;SDS011;38940;50.096;4.012;2022-09-11T05:39:53;82.43;;;74.53;;
53056;SDS011;38940;50.096;4.012;2022-09-11T05:42:19;82.50;;;74.20;;
53056;SDS011;38940;50.096;4.012;2022-09-11T05:44:46;82.65;;;75.30;;
53056;SDS011;38940;50.096;4.012;2022-09-11T05:47:12;83.45;;;76.07;;
53056;SDS011;38940;50.096;4.012;2022-09-11T05:49:38;84.45;;;71.25;;
53056;SDS011;38940;50.096;4.012;2022-09-11T05:52:04;90.70;;;75.95;;
53056;SDS011;38940;50.096;4.012;2022-09-11T05:54:30;77.75;;;71.40;;
53056;SDS011;38940;50.096;4.012;2022-09-11T05:56:56;83.40;;;73.68;;
53056;SDS011;38940;50.096;4.012;2022-09-11T05:59:22;85.65;;;78.10;;
53056;SDS011;38940;50.096;4.012;2022-09-11T06:01:49;120.53;;;85.57;;
53056;SDS011;38940;50.096;4.012;2022-09-11T06:04:15;84.57;;;77.80;;
53056;SDS011;38940;50.096;4.012;2022-09-11T06:06:42;81.85;;;74.90;;
53056;SDS011;38940;50.096;4.012;2022-09-11T06:09:11;97.82;;;83.70;;
53056;SDS011;38940;50.096;4.012;2022-09-11T06:11:37;91.18;;;84.15;;
53056;SDS011;38940;50.096;4.012;2022-09-11T06:14:03;91.22;;;78.55;;
53056;SDS011;38940;50.096;4.012;2022-09-11T06:16:29;105.47;;;82.63;;
53056;SDS011;38940;50.096;4.012;2022-09-11T06:18:56;108.38;;;98.00;;
53056;SDS011;38940;50.096;4.012;2022-09-11T06:21:23;93.20;;;78.72;;
53056;SDS011;38940;50.096;4.012;2022-09-11T06:23:51;90.22;;;80.43;;
53056;SDS011;38940;50.096;4.012;2022-09-11T06:26:18;89.93;;;82.50;;
53056;SDS011;38940;50.096;4.012;2022-09-11T06:28:45;141.43;;;93.35;;
53056;SDS011;38940;50.096;4.012;2022-09-11T06:31:13;96.60;;;88.90;;
53056;SDS011;38940;50.096;4.012;2022-09-11T06:33:40;93.85;;;85.65;;
53056;SDS011;38940;50.096;4.012;2022-09-11T06:36:08;100.38;;;92.97;;
53056;SDS011;38940;50.096;4.012;2022-09-11T06:38:35;106.50;;;99.07;;
53056;SDS011;38940;50.096;4.012;2022-09-11T06:41:06;95.72;;;88.90;;
53056;SDS011;38940;50.096;4.012;2022-09-11T06:43:35;102.32;;;95.38;;
53056;SDS011;38940;50.096;4.012;2022-09-11T06:46:04;107.32;;;97.72;;
53056;SDS011;38940;50.096;4.012;2022-09-11T06:48:30;87.07;;;80.35;;
53056;SDS011;38940;50.096;4.012;2022-09-11T06:51:00;98.05;;;90.40;;
53056;SDS011;38940;50.096;4.012;2022-09-11T06:53:26;106.78;;;97.78;;
53056;SDS011;38940;50.096;4.012;2022-09-11T06:55:52;106.93;;;99.25;;
53056;SDS011;38940;50.096;4.012;2022-09-11T06:58:22;98.25;;;90.88;;
53056;SDS011;38940;50.096;4.012;2022-09-11T07:00:49;118.57;;;108.05;;
53056;SDS011;38940;50.096;4.012;2022-09-11T07:03:15;97.35;;;90.38;;
53056;SDS011;38940;50.096;4.012;2022-09-11T07:05:45;105.75;;;97.63;;
53056;SDS011;38940;50.096;4.012;2022-09-11T07:08:13;108.00;;;99.78;;
53056;SDS011;38940;50.096;4.012;2022-09-11T07:10:39;104.65;;;97.28;;
53056;SDS011;38940;50.096;4.012;2022-09-11T07:13:05;108.90;;;101.05;;
53056;SDS011;38940;50.096;4.012;2022-09-11T07:15:31;100.90;;;93.75;;
53056;SDS011;38940;50.096;4.012;2022-09-11T07:17:58;98.10;;;91.05;;
53056;SDS011;38940;50.096;4.012;2022-09-11T07:20:25;88.97;;;82.82;;
53056;SDS011;38940;50.096;4.012;2022-09-11T07:22:51;91.65;;;84.88;;
53056;SDS011;38940;50.096;4.012;2022-09-11T07:25:17;101.32;;;94.28;;
53056;SDS011;38940;50.096;4.012;2022-09-11T07:27:44;102.55;;;95.53;;
53056;SDS011;38940;50.096;4.012;2022-09-11T07:30:10;96.55;;;89.65;;
53056;SDS011;38940;50.096;4.012;2022-09-11T07:32:37;96.80;;;89.45;;
53056;SDS011;38940;50.096;4.012;2022-09-11T07:35:03;94.80;;;87.65;;
53056;SDS011;38940;50.096;4.012;2022-09-11T07:37:30;107.25;;;99.55;;
53056;SDS011;38940;50.096;4.012;2022-09-11T07:39:56;97.55;;;90.47;;
53056;SDS011;38940;50.096;4.012;2022-09-11T07:42:22;94.75;;;88.00;;
53056;SDS011;38940;50.096;4.012;2022-09-11T07:44:48;105.20;;;97.53;;
53056;SDS011;38940;50.096;4.012;2022-09-11T07:47:14;97.50;;;90.30;;
53056;SDS011;38940;50.096;4.012;2022-09-11T07:49:40;114.85;;;106.30;;
53056;SDS011;38940;50.096;4.012;2022-09-11T07:52:07;107.60;;;99.68;;
53056;SDS011;38940;50.096;4.012;2022-09-11T07:54:33;104.20;;;96.80;;
53056;SDS011;38940;50.096;4.012;2022-09-11T07:56:59;109.13;;;100.82;;
53056;SDS011;38940;50.096;4.012;2022-09-11T07:59:26;107.22;;;99.47;;
53056;SDS011;38940;50.096;4.012;2022-09-11T08:01:52;114.32;;;105.95;;
53056;SDS011;38940;50.096;4.012;2022-09-11T08:04:19;105.25;;;97.20;;
53056;SDS011;38940;50.096;4.012;2022-09-11T08:06:45;107.90;;;100.28;;
53056;SDS011;38940;50.096;4.012;2022-09-11T08:09:12;105.15;;;97.60;;
53056;SDS011;38940;50.096;4.012;2022-09-11T08:11:42;114.55;;;106.57;;
53056;SDS011;38940;50.096;4.012;2022-09-11T08:14:10;117.40;;;109.05;;
53056;SDS011;38940;50.096;4.012;2022-09-11T08:16:38;113.47;;;105.45;;
53056;SDS011;38940;50.096;4.012;2022-09-11T08:19:04;117.32;;;109.00;;
53056;SDS011;38940;50.096;4.012;2022-09-11T08:21:31;116.72;;;108.28;;
53056;SDS011;38940;50.096;4.012;2022-09-11T08:23:57;106.20;;;98.38;;
53056;SDS011;38940;50.096;4.012;2022-09-11T08:26:24;106.60;;;97.95;;
53056;SDS011;38940;50.096;4.012;2022-09-11T08:28:51;104.22;;;96.47;;
53056;SDS011;38940;50.096;4.012;2022-09-11T08:31:18;116.70;;;107.50;;
53056;SDS011;38940;50.096;4.012;2022-09-11T08:33:45;115.68;;;107.35;;
53056;SDS011;38940;50.096;4.012;2022-09-11T08:36:12;111.60;;;102.90;;
53056;SDS011;38940;50.096;4.012;2022-09-11T08:38:38;111.43;;;102.88;;
53056;SDS011;38940;50.096;4.012;2022-09-11T08:41:11;94.78;;;87.80;;
53056;SDS011;38940;50.096;4.012;2022-09-11T08:43:45;96.75;;;88.68;;
53056;SDS011;38940;50.096;4.012;2022-09-11T08:46:12;92.68;;;84.72;;
53056;SDS011;38940;50.096;4.012;2022-09-11T08:49:00;105.55;;;97.38;;
53056;SDS011;38940;50.096;4.012;2022-09-11T08:51:24;121.18;;;111.35;;
53056;SDS011;38940;50.096;4.012;2022-09-11T08:53:50;135.48;;;124.68;;
53056;SDS011;38940;50.096;4.012;2022-09-11T08:56:18;115.75;;;106.07;;
53056;SDS011;38940;50.096;4.012;2022-09-11T09:01:35;130.32;;;119.68;;
53056;SDS011;38940;50.096;4.012;2022-09-11T09:07:24;99.28;;;91.45;;
53056;SDS011;38940;50.096;4.012;2022-09-11T09:17:22;96.05;;;87.65;;
53056;SDS011;38940;50.096;4.012;2022-09-11T09:19:57;108.28;;;99.90;;
53056;SDS011;38940;50.096;4.012;2022-09-11T09:22:37;103.30;;;95.30;;
53056;SDS011;38940;50.096;4.012;2022-09-11T09:25:05;110.22;;;101.68;;
53056;SDS011;38940;50.096;4.012;2022-09-11T09:27:35;106.10;;;98.15;;
53056;SDS011;38940;50.096;4.012;2022-09-11T09:30:04;90.30;;;83.13;;
53056;SDS011;38940;50.096;4.012;2022-09-11T09:32:33;90.25;;;83.10;;
53056;SDS011;38940;50.096;4.012;2022-09-11T09:35:01;90.57;;;83.55;;
53056;SDS011;38940;50.096;4.012;2022-09-11T09:37:28;116.97;;;108.28;;
53056;SDS011;38940;50.096;4.012;2022-09-11T09:39:54;118.13;;;110.00;;
53056;SDS011;38940;50.096;4.012;2022-09-11T09:47:19;102.68;;;95.32;;
53056;SDS011;38940;50.096;4.012;2022-09-11T09:49:46;113.32;;;105.38;;
53056;SDS011;38940;50.096;4.012;2022-09-11T09:52:22;108.95;;;101.53;;
53056;SDS011;38940;50.096;4.012;2022-09-11T09:54:59;108.35;;;100.90;;
53056;SDS011;38940;50.096;4.012;2022-09-11T09:57:32;114.13;;;106.43;;
53056;SDS011;38940;50.096;4.012;2022-09-11T10:00:10;130.40;;;121.55;;
53056;SDS011;38940;50.096;4.012;2022-09-11T10:05:27;141.02;;;131.35;;
53056;SDS011;38940;50.096;4.012;2022-09-11T10:07:53;127.93;;;119.20;;
53056;SDS011;38940;50.096;4.012;2022-09-11T10:10:29;106.95;;;99.13;;
53056;SDS011;38940;50.096;4.012;2022-09-11T10:12:56;141.43;;;131.93;;
53056;SDS011;38940;50.096;4.012;2022-09-11T10:15:23;93.55;;;87.25;;
53056;SDS011;38940;50.096;4.012;2022-09-11T10:17:50;120.47;;;111.82;;
53056;SDS011;38940;50.096;4.012;2022-09-11T10:22:43;110.20;;;102.78;;
53056;SDS011;38940;50.096;4.012;2022-09-11T10:33:21;92.63;;;86.57;;
53056;SDS011;38940;50.096;4.012;2022-09-11T10:35:52;94.50;;;88.00;;
53056;SDS011;38940;50.096;4.012;2022-09-11T10:38:19;110.97;;;101.30;;
53056;SDS011;38940;50.096;4.012;2022-09-11T10:40:53;98.00;;;90.93;;
53056;SDS011;38940;50.096;4.012;2022-09-11T10:43:22;88.57;;;82.57;;
53056;SDS011;38940;50.096;4.012;2022-09-11T10:46:02;97.20;;;90.75;;
53056;SDS011;38940;50.096;4.012;2022-09-11T10:48:28;88.88;;;82.93;;
53056;SDS011;38940;50.096;4.012;2022-09-11T10:51:02;123.80;;;115.55;;
53056;SDS011;38940;50.096;4.012;2022-09-11T10:53:29;101.68;;;94.65;;
53056;SDS011;38940;50.096;4.012;2022-09-11T10:55:58;105.40;;;98.30;;
53056;SDS011;38940;50.096;4.012;2022-09-11T10:58:26;102.93;;;96.18;;
53056;SDS011;38940;50.096;4.012;2022-09-11T11:00:55;96.82;;;90.38;;
53056;SDS011;38940;50.096;4.012;2022-09-11T11:03:25;98.40;;;90.30;;
53056;SDS011;38940;50.096;4.012;2022-09-11T11:11:07;79.72;;;74.30;;
53056;SDS011;38940;50.096;4.012;2022-09-11T11:29:49;78.53;;;72.78;;
53056;SDS011;38940;50.096;4.012;2022-09-11T11:35:11;96.30;;;89.65;;
53056;SDS011;38940;50.096;4.012;2022-09-11T11:37:41;85.53;;;79.82;;
53056;SDS011;38940;50.096;4.012;2022-09-11T11:42:45;86.55;;;80.95;;
53056;SDS011;38940;50.096;4.012;2022-09-11T11:45:21;87.17;;;81.37;;
53056;SDS011;38940;50.096;4.012;2022-09-11T11:47:48;79.53;;;74.05;;
53056;SDS011;38940;50.096;4.012;2022-09-11T11:50:36;73.43;;;68.43;;
53056;SDS011;38940;50.096;4.012;2022-09-11T11:55:39;72.85;;;67.90;;
53056;SDS011;38940;50.096;4.012;2022-09-11T12:00:38;114.97;;;107.43;;
53056;SDS011;38940;50.096;4.012;2022-09-11T12:03:14;96.38;;;90.00;;
53056;SDS011;38940;50.096;4.012;2022-09-11T12:05:42;99.25;;;92.80;;
53056;SDS011;38940;50.096;4.012;2022-09-11T12:08:12;103.03;;;96.35;;
53056;SDS011;38940;50.096;4.012;2022-09-11T12:10:40;76.60;;;71.63;;
53056;SDS011;38940;50.096;4.012;2022-09-11T12:13:11;79.22;;;73.97;;
53056;SDS011;38940;50.096;4.012;2022-09-11T12:15:39;86.30;;;80.70;;
53056;SDS011;38940;50.096;4.012;2022-09-11T12:18:22;99.90;;;93.43;;
53056;SDS011;38940;50.096;4.012;2022-09-11T12:20:49;81.15;;;75.80;;
53056;SDS011;38940;50.096;4.012;2022-09-11T12:23:34;70.63;;;65.95;;
53056;SDS011;38940;50.096;4.012;2022-09-11T12:26:26;104.05;;;97.20;;
53056;SDS011;38940;50.096;4.012;2022-09-11T12:29:39;112.93;;;105.68;;
53056;SDS011;38940;50.096;4.012;2022-09-11T12:34:17;98.07;;;91.70;;
53056;SDS011;38940;50.096;4.012;2022-09-11T12:36:50;90.55;;;84.70;;
53056;SDS011;38940;50.096;4.012;2022-09-11T12:39:29;87.88;;;81.88;;
53056;SDS011;38940;50.096;4.012;2022-09-11T12:47:11;84.55;;;79.10;;
53056;SDS011;38940;50.096;4.012;2022-09-11T12:49:40;81.00;;;75.63;;
53056;SDS011;38940;50.096;4.012;2022-09-11T12:52:16;80.43;;;75.20;;
53056;SDS011;38940;50.096;4.012;2022-09-11T12:54:43;65.80;;;61.58;;
53056;SDS011;38940;50.096;4.012;2022-09-11T12:57:26;67.50;;;63.05;;
53056;SDS011;38940;50.096;4.012;2022-09-11T12:59:55;89.63;;;83.47;;
53056;SDS011;38940;50.096;4.012;2022-09-11T13:02:34;97.63;;;91.38;;
53056;SDS011;38940;50.096;4.012;2022-09-11T13:05:05;100.88;;;94.32;;
53056;SDS011;38940;50.096;4.012;2022-09-11T13:07:46;84.32;;;78.82;;
53056;SDS011;38940;50.096;4.012;2022-09-11T13:12:57;71.00;;;66.05;;
53056;SDS011;38940;50.096;4.012;2022-09-11T13:15:42;72.78;;;68.13;;
53056;SDS011;38940;50.096;4.012;2022-09-11T13:18:26;67.75;;;63.40;;
53056;SDS011;38940;50.096;4.012;2022-09-11T13:21:11;63.25;;;59.05;;
53056;SDS011;38940;50.096;4.012;2022-09-11T13:23:37;77.25;;;72.22;;
53056;SDS011;38940;50.096;4.012;2022-09-11T13:26:04;76.10;;;71.18;;
53056;SDS011;38940;50.096;4.012;2022-09-11T13:28:33;76.55;;;71.40;;
53056;SDS011;38940;50.096;4.012;2022-09-11T13:31:11;86.95;;;81.25;;
53056;SDS011;38940;50.096;4.012;2022-09-11T13:33:38;71.28;;;66.32;;
53056;SDS011;38940;50.096;4.012;2022-09-11T13:36:05;65.05;;;60.85;;
53056;SDS011;38940;50.096;4.012;2022-09-11T13:38:33;79.10;;;73.90;;
53056;SDS011;38940;50.096;4.012;2022-09-11T13:41:01;84.68;;;78.43;;
53056;SDS011;38940;50.096;4.012;2022-09-11T13:43:31;70.10;;;65.55;;
53056;SDS011;38940;50.096;4.012;2022-09-11T13:48:41;94.72;;;88.68;;
53056;SDS011;38940;50.096;4.012;2022-09-11T13:51:11;90.80;;;84.75;;
53056;SDS011;38940;50.096;4.012;2022-09-11T13:53:38;72.18;;;67.45;;
53056;SDS011;38940;50.096;4.012;2022-09-11T13:56:04;69.65;;;64.90;;
53056;SDS011;38940;50.096;4.012;2022-09-11T13:58:31;74.93;;;70.13;;
53056;SDS011;38940;50.096;4.012;2022-09-11T14:01:09;59.72;;;55.45;;
53056;SDS011;38940;50.096;4.012;2022-09-11T14:03:35;68.15;;;63.72;;
53056;SDS011;38940;50.096;4.012;2022-09-11T14:06:12;65.10;;;60.90;;
53056;SDS011;38940;50.096;4.012;2022-09-11T14:08:40;79.13;;;74.07;;
53056;SDS011;38940;50.096;4.012;2022-09-11T14:11:13;72.03;;;67.32;;
53056;SDS011;38940;50.096;4.012;2022-09-11T14:13:46;65.07;;;60.80;;
53056;SDS011;38940;50.096;4.012;2022-09-11T14:18:50;72.47;;;67.78;;
53056;SDS011;38940;50.096;4.012;2022-09-11T14:21:18;79.93;;;74.78;;
53056;SDS011;38940;50.096;4.012;2022-09-11T14:23:53;70.88;;;66.28;;
53056;SDS011;38940;50.096;4.012;2022-09-11T14:26:20;61.80;;;57.83;;
53056;SDS011;38940;50.096;4.012;2022-09-11T14:31:13;79.88;;;74.63;;
53056;SDS011;38940;50.096;4.012;2022-09-11T14:34:01;59.63;;;55.53;;
53056;SDS011;38940;50.096;4.012;2022-09-11T14:36:27;60.10;;;56.10;;
53056;SDS011;38940;50.096;4.012;2022-09-11T14:38:53;67.28;;;62.97;;
53056;SDS011;38940;50.096;4.012;2022-09-11T14:41:19;55.55;;;51.95;;
53056;SDS011;38940;50.096;4.012;2022-09-11T14:43:45;67.93;;;63.53;;
53056;SDS011;38940;50.096;4.012;2022-09-11T14:46:11;85.60;;;80.05;;
53056;SDS011;38940;50.096;4.012;2022-09-11T14:48:37;87.25;;;81.53;;
53056;SDS011;38940;50.096;4.012;2022-09-11T14:51:08;64.97;;;60.85;;
53056;SDS011;38940;50.096;4.012;2022-09-11T14:53:36;87.20;;;81.60;;
53056;SDS011;38940;50.096;4.012;2022-09-11T14:56:02;89.95;;;84.15;;
53056;SDS011;38940;50.096;4.012;2022-09-11T14:58:29;69.65;;;65.15;;
53056;SDS011;38940;50.096;4.012;2022-09-11T15:00:56;130.15;;;121.53;;
53056;SDS011;38940;50.096;4.012;2022-09-11T15:03:22;123.05;;;114.65;;
53056;SDS011;38940;50.096;4.012;2022-09-11T15:05:50;118.93;;;111.25;;
53056;SDS011;38940;50.096;4.012;2022-09-11T15:08:18;95.13;;;88.78;;
53056;SDS011;38940;50.096;4.012;2022-09-11T15:10:44;82.60;;;77.30;;
53056;SDS011;38940;50.096;4.012;2022-09-11T15:13:11;87.63;;;81.95;;
53056;SDS011;38940;50.096;4.012;2022-09-11T15:15:37;84.78;;;79.30;;
53056;SDS011;38940;50.096;4.012;2022-09-11T15:18:04;69.45;;;64.70;;
53056;SDS011;38940;50.096;4.012;2022-09-11T15:20:30;73.57;;;68.82;;
53056;SDS011;38940;50.096;4.012;2022-09-11T15:22:56;74.30;;;69.50;;
53056;SDS011;38940;50.096;4.012;2022-09-11T15:25:22;67.40;;;63.05;;
53056;SDS011;38940;50.096;4.012;2022-09-11T15:27:52;74.60;;;69.80;;
53056;SDS011;38940;50.096;4.012;2022-09-11T15:30:21;74.03;;;69.28;;
53056;SDS011;38940;50.096;4.012;2022-09-11T15:32:47;68.90;;;64.40;;
53056;SDS011;38940;50.096;4.012;2022-09-11T15:35:14;76.88;;;71.85;;
53056;SDS011;38940;50.096;4.012;2022-09-11T15:37:41;65.38;;;60.97;;
53056;SDS011;38940;50.096;4.012;2022-09-11T15:40:09;74.50;;;69.70;;
53056;SDS011;38940;50.096;4.012;2022-09-11T15:42:35;68.28;;;63.88;;
53056;SDS011;38940;50.096;4.012;2022-09-11T15:45:01;91.50;;;85.50;;
53056;SDS011;38940;50.096;4.012;2022-09-11T15:47:28;91.63;;;85.65;;
53056;SDS011;38940;50.096;4.012;2022-09-11T15:49:55;102.28;;;95.40;;
53056;SDS011;38940;50.096;4.012;2022-09-11T15:52:22;87.82;;;82.20;;
53056;SDS011;38940;50.096;4.012;2022-09-11T15:54:48;82.05;;;76.70;;
53056;SDS011;38940;50.096;4.012;2022-09-11T15:57:15;81.13;;;75.90;;
53056;SDS011;38940;50.096;4.012;2022-09-11T15:59:41;69.78;;;65.18;;
53056;SDS011;38940;50.096;4.012;2022-09-11T16:02:08;71.60;;;66.97;;
53056;SDS011;38940;50.096;4.012;2022-09-11T16:04:35;74.18;;;69.25;;
53056;SDS011;38940;50.096;4.012;2022-09-11T16:07:01;89.50;;;83.68;;
53056;SDS011;38940;50.096;4.012;2022-09-11T16:09:28;86.88;;;81.30;;
53056;SDS011;38940;50.096;4.012;2022-09-11T16:11:55;84.75;;;79.32;;
53056;SDS011;38940;50.096;4.012;2022-09-11T16:14:25;83.03;;;77.65;;
53056;SDS011;38940;50.096;4.012;2022-09-11T16:16:52;86.13;;;80.22;;
53056;SDS011;38940;50.096;4.012;2022-09-11T16:19:19;74.13;;;69.20;;
53056;SDS011;38940;50.096;4.012;2022-09-11T16:21:46;74.35;;;69.55;;
53056;SDS011;38940;50.096;4.012;2022-09-11T16:24:13;65.95;;;61.75;;